Time;durP1;ratioP1;P1;durP2;ratioP2;P2;SDS_P1;SDS_P2;PMS_P1;PMS_P2;Temp;Humidity;BMP_temperature;BMP_pressure;BME280_temperature;BME280_humidity;BME280_pressure;Samples;Min_cycle;Max_cycle;Signal;HPM_P1;HPM_P2
2023/06/16 00:01:15;;;;;;;2.80;1.30;;;18.90;90.50;;;;;;5008847;28;20037;-72
2023/06/16 00:03:41;;;;;;;1.92;1.13;;;18.80;90.70;;;;;;5030827;28;20053;-72
2023/06/16 00:06:13;;;;;;;4.22;1.33;;;18.80;91.00;;;;;;5008985;28;20101;-72
2023/06/16 00:08:47;;;;;;;2.67;1.17;;;18.70;91.20;;;;;;5028377;28;20117;-73
2023/06/16 00:11:14;;;;;;;4.32;1.00;;;18.60;91.60;;;;;;5005719;28;20516;-72
2023/06/16 00:13:40;;;;;;;3.58;1.13;;;18.50;91.60;;;;;;5009787;28;20126;-72
2023/06/16 00:16:06;;;;;;;6.25;1.42;;;18.50;91.80;;;;;;5026834;28;20026;-72
2023/06/16 00:18:31;;;;;;;1.65;1.02;;;18.40;91.80;;;;;;5028085;28;20044;-72
2023/06/16 00:21:01;;;;;;;3.80;1.10;;;18.40;91.90;;;;;;5008839;28;20044;-72
2023/06/16 00:23:26;;;;;;;7.55;1.60;;;18.40;91.60;;;;;;5027729;28;20041;-74
2023/06/16 00:25:52;;;;;;;6.00;1.25;;;18.40;91.70;;;;;;5010185;28;20127;-74
2023/06/16 00:28:19;;;;;;;3.45;1.38;;;18.30;91.80;;;;;;5008765;28;20037;-73
2023/06/16 00:30:46;;;;;;;3.20;1.35;;;18.20;91.90;;;;;;5009986;28;20033;-72
2023/06/16 00:33:12;;;;;;;3.38;1.20;;;18.20;91.90;;;;;;5026881;28;20026;-72
2023/06/16 00:35:39;;;;;;;3.63;1.40;;;18.10;92.00;;;;;;5009790;28;20116;-72
2023/06/16 00:38:05;;;;;;;2.22;1.10;;;18.10;92.00;;;;;;5008838;28;20482;-74
2023/06/16 00:40:31;;;;;;;4.85;1.25;;;18.10;91.80;;;;;;5027353;28;20038;-74
2023/06/16 00:42:58;;;;;;;3.72;1.23;;;18.10;91.90;;;;;;5026229;28;20072;-75
2023/06/16 00:45:24;;;;;;;8.18;1.00;;;18.00;91.90;;;;;;5009817;28;20037;-73
2023/06/16 00:47:51;;;;;;;2.40;1.35;;;18.00;91.90;;;;;;5010005;28;20037;-71
2023/06/16 00:50:18;;;;;;;2.30;1.05;;;18.00;92.00;;;;;;5008629;28;20041;-73
2023/06/16 00:52:44;;;;;;;5.97;1.35;;;18.00;92.20;;;;;;5027564;28;20071;-72
2023/06/16 00:55:11;;;;;;;2.30;1.27;;;17.90;92.30;;;;;;5008785;28;20398;-73
2023/06/16 00:57:38;;;;;;;3.40;1.48;;;17.90;92.50;;;;;;5029707;28;20044;-72
2023/06/16 01:00:07;;;;;;;3.58;0.80;;;17.90;92.50;;;;;;5008223;28;20042;-72
2023/06/16 01:02:33;;;;;;;5.22;1.30;;;17.80;92.60;;;;;;5009466;28;20044;-72
2023/06/16 01:04:59;;;;;;;5.03;1.58;;;17.70;92.60;;;;;;5028768;28;20044;-73
2023/06/16 01:07:50;;;;;;;3.65;1.10;;;17.70;92.30;;;;;;5009900;28;20034;-73
2023/06/16 01:10:31;;;;;;;5.70;1.73;;;17.70;92.00;;;;;;5005682;28;20221;-73
2023/06/16 01:13:22;;;;;;;2.67;1.20;;;17.70;92.20;;;;;;5029302;28;20086;-74
2023/06/16 01:15:48;;;;;;;2.20;1.17;;;17.60;92.40;;;;;;5029182;28;20084;-74
2023/06/16 01:18:17;;;;;;;2.55;1.23;;;17.60;92.40;;;;;;5013063;28;20092;-73
2023/06/16 01:20:57;;;;;;;4.20;1.15;;;17.50;92.30;;;;;;5031755;28;20087;-72
2023/06/16 01:23:29;;;;;;;12.35;1.33;;;17.50;92.50;;;;;;5031260;28;20068;-74
2023/06/16 01:25:58;;;;;;;3.75;1.13;;;17.40;92.40;;;;;;5014073;28;20083;-71
2023/06/16 01:28:25;;;;;;;3.25;1.83;;;17.40;92.20;;;;;;5031416;28;20513;-73
2023/06/16 01:30:52;;;;;;;2.05;1.10;;;17.40;92.30;;;;;;5012577;28;20057;-72
2023/06/16 01:33:20;;;;;;;3.38;1.15;;;17.40;92.40;;;;;;5030168;28;20033;-72
2023/06/16 01:35:47;;;;;;;2.80;1.40;;;17.40;92.60;;;;;;5013387;28;20068;-72
2023/06/16 01:38:14;;;;;;;4.05;1.50;;;17.40;92.40;;;;;;5030243;28;20087;-74
2023/06/16 01:40:41;;;;;;;2.10;0.88;;;17.40;92.20;;;;;;5012601;28;20029;-73
2023/06/16 01:43:08;;;;;;;7.88;1.20;;;17.40;92.20;;;;;;5012202;28;20401;-72
2023/06/16 01:45:35;;;;;;;2.15;1.05;;;17.30;92.30;;;;;;5026831;28;20035;-74
2023/06/16 01:48:02;;;;;;;4.25;1.40;;;17.30;92.50;;;;;;5012213;28;20034;-73
2023/06/16 01:50:28;;;;;;;6.78;1.38;;;17.30;91.90;;;;;;5030152;28;20057;-72
2023/06/16 01:52:54;;;;;;;3.65;1.13;;;17.30;91.90;;;;;;5030442;28;20474;-72
2023/06/16 01:55:19;;;;;;;3.53;1.52;;;17.30;91.90;;;;;;5012009;28;20041;-71
2023/06/16 01:57:47;;;;;;;4.45;1.45;;;17.20;92.10;;;;;;5014485;28;20512;-71
2023/06/16 02:00:16;;;;;;;5.20;1.35;;;17.20;92.10;;;;;;5029080;28;20155;-72
2023/06/16 02:03:08;;;;;;;3.85;1.40;;;17.20;92.00;;;;;;5030554;28;20096;-72
2023/06/16 02:05:38;;;;;;;3.33;1.75;;;17.20;92.10;;;;;;5007648;28;20037;-72
2023/06/16 02:08:05;;;;;;;3.77;1.50;;;17.20;92.00;;;;;;5025637;28;20405;-73
2023/06/16 02:10:31;;;;;;;2.28;1.40;;;17.30;92.00;;;;;;5012378;28;20041;-73
2023/06/16 02:12:56;;;;;;;8.70;2.55;;;17.30;92.20;;;;;;5030324;28;20034;-72
2023/06/16 02:15:23;;;;;;;2.63;1.50;;;17.20;92.10;;;;;;5029742;28;20036;-73
2023/06/16 02:17:51;;;;;;;2.15;1.25;;;17.30;92.20;;;;;;5030392;28;20057;-72
2023/06/16 02:20:17;;;;;;;3.88;1.52;;;17.30;91.80;;;;;;5029031;28;20030;-72
2023/06/16 02:22:42;;;;;;;3.25;1.30;;;17.30;91.80;;;;;;5011429;28;20038;-74
2023/06/16 02:25:08;;;;;;;3.60;1.83;;;17.40;91.70;;;;;;5028235;28;20036;-73
2023/06/16 02:27:33;;;;;;;2.42;1.20;;;17.40;91.80;;;;;;5012369;28;20092;-72
2023/06/16 02:29:59;;;;;;;7.03;1.60;;;17.40;91.70;;;;;;5028478;28;20474;-72
2023/06/16 02:32:26;;;;;;;2.92;1.45;;;17.40;91.60;;;;;;5011733;28;20505;-72
2023/06/16 02:34:53;;;;;;;5.70;1.50;;;17.30;91.70;;;;;;5012239;28;20045;-73
2023/06/16 02:37:21;;;;;;;6.85;2.33;;;17.30;91.40;;;;;;5011396;28;20057;-74
2023/06/16 02:39:46;;;;;;;6.25;1.70;;;17.30;91.50;;;;;;5029729;28;20425;-71
2023/06/16 02:42:12;;;;;;;7.15;2.30;;;17.30;91.60;;;;;;5028999;28;20038;-73
2023/06/16 02:44:38;;;;;;;3.72;1.30;;;17.20;91.80;;;;;;5029997;28;20504;-71
2023/06/16 02:47:03;;;;;;;2.70;1.50;;;17.20;91.90;;;;;;5010383;28;20561;-72
2023/06/16 02:49:30;;;;;;;4.13;1.65;;;17.10;92.00;;;;;;5007838;28;20394;-72
2023/06/16 02:51:56;;;;;;;4.75;1.58;;;17.10;92.10;;;;;;5011541;28;20029;-72
2023/06/16 02:54:22;;;;;;;5.47;1.48;;;17.00;92.20;;;;;;5010803;28;20038;-72
2023/06/16 02:56:47;;;;;;;3.10;1.33;;;17.10;92.00;;;;;;5012945;28;20037;-71
2023/06/16 02:59:13;;;;;;;4.93;1.27;;;17.10;92.00;;;;;;5028247;28;20021;-73
2023/06/16 03:01:38;;;;;;;3.63;1.58;;;17.00;92.00;;;;;;5010930;28;20080;-72
2023/06/16 03:04:04;;;;;;;2.90;1.50;;;17.00;92.30;;;;;;5011991;28;20474;-72
2023/06/16 03:06:34;;;;;;;2.42;1.30;;;17.00;92.10;;;;;;5011439;28;20095;-72
2023/06/16 03:09:00;;;;;;;2.60;1.48;;;16.90;92.50;;;;;;5024862;28;20036;-73
2023/06/16 03:11:25;;;;;;;6.82;1.73;;;16.90;92.50;;;;;;5011394;28;20033;-72
2023/06/16 03:13:51;;;;;;;2.75;1.45;;;16.80;92.50;;;;;;5029450;28;20084;-72
2023/06/16 03:16:21;;;;;;;4.97;1.58;;;16.80;92.70;;;;;;5027893;28;20755;-74
2023/06/16 03:18:46;;;;;;;5.90;1.30;;;16.70;92.90;;;;;;5011371;28;20033;-73
2023/06/16 03:21:12;;;;;;;2.03;1.40;;;16.60;93.00;;;;;;5027930;28;20311;-73
2023/06/16 03:23:37;;;;;;;6.95;1.80;;;16.60;93.20;;;;;;5029142;28;20103;-73
2023/06/16 03:26:03;;;;;;;2.63;1.63;;;16.60;93.30;;;;;;5027666;28;20052;-72
2023/06/16 03:28:29;;;;;;;4.50;1.60;;;16.50;93.40;;;;;;5011160;28;20048;-74
2023/06/16 03:30:55;;;;;;;4.78;1.67;;;16.50;93.60;;;;;;5010683;28;20033;-73
2023/06/16 03:33:21;;;;;;;4.63;2.28;;;16.40;93.70;;;;;;5027995;28;20143;-73
2023/06/16 03:35:47;;;;;;;3.58;1.92;;;16.40;93.80;;;;;;5010292;28;20111;-72
2023/06/16 03:38:12;;;;;;;4.72;1.65;;;16.40;94.00;;;;;;5027942;28;20077;-73
2023/06/16 03:40:38;;;;;;;4.80;1.73;;;16.40;93.80;;;;;;5010527;28;20065;-73
2023/06/16 03:43:04;;;;;;;6.82;1.80;;;16.40;94.00;;;;;;5009624;28;20036;-73
2023/06/16 03:45:29;;;;;;;9.95;1.77;;;16.40;94.10;;;;;;5028045;28;20095;-72
2023/06/16 03:47:55;;;;;;;7.55;2.05;;;16.40;93.90;;;;;;5028510;28;20425;-72
2023/06/16 03:50:21;;;;;;;5.35;1.65;;;16.50;93.80;;;;;;5027427;28;20060;-71
2023/06/16 03:52:46;;;;;;;9.55;1.85;;;16.50;93.70;;;;;;5010497;28;20034;-72
2023/06/16 03:55:13;;;;;;;5.40;1.75;;;16.50;93.80;;;;;;5024632;28;20037;-74
2023/06/16 03:57:39;;;;;;;3.72;1.88;;;16.50;93.90;;;;;;5011527;28;20038;-73
2023/06/16 04:00:09;;;;;;;5.32;2.15;;;16.50;94.00;;;;;;5027083;28;20029;-73
2023/06/16 04:02:36;;;;;;;4.13;2.03;;;16.50;94.00;;;;;;5010673;28;20099;-73
2023/06/16 04:05:02;;;;;;;6.15;1.70;;;16.60;93.80;;;;;;5025488;28;20147;-72
2023/06/16 04:07:29;;;;;;;4.47;1.58;;;16.60;93.80;;;;;;5028076;28;20494;-71
2023/06/16 04:09:55;;;;;;;6.38;1.88;;;16.60;93.70;;;;;;5006207;28;20038;-72
2023/06/16 04:12:20;;;;;;;7.15;1.60;;;16.60;93.80;;;;;;5027098;28;20033;-74
2023/06/16 04:14:46;;;;;;;4.05;1.92;;;16.60;94.00;;;;;;5010413;28;20081;-74
2023/06/16 04:17:11;;;;;;;3.63;1.90;;;16.60;94.30;;;;;;5009085;28;20064;-72
2023/06/16 04:19:37;;;;;;;3.47;1.95;;;16.70;94.20;;;;;;5009991;28;20045;-74
2023/06/16 04:22:03;;;;;;;7.15;2.28;;;16.60;94.20;;;;;;5008826;28;20052;-73
2023/06/16 04:24:28;;;;;;;4.50;1.55;;;16.70;94.30;;;;;;5010251;28;20037;-73
2023/06/16 04:26:58;;;;;;;6.55;2.30;;;16.70;94.40;;;;;;5027946;28;20021;-73
2023/06/16 04:29:26;;;;;;;6.53;1.70;;;16.80;94.40;;;;;;5002721;28;20113;-72
2023/06/16 04:31:52;;;;;;;5.00;1.80;;;16.70;94.40;;;;;;5010174;28;20121;-72
2023/06/16 04:34:18;;;;;;;4.78;1.55;;;16.70;94.70;;;;;;5008662;28;20120;-72
2023/06/16 04:36:44;;;;;;;6.68;2.13;;;16.70;94.90;;;;;;5027460;28;20072;-74
2023/06/16 04:39:11;;;;;;;8.40;2.55;;;16.70;95.10;;;;;;5026987;28;20592;-72
2023/06/16 04:41:37;;;;;;;6.25;1.67;;;16.70;95.20;;;;;;5009912;28;20053;-73
2023/06/16 04:44:03;;;;;;;3.13;1.60;;;16.80;95.40;;;;;;5026774;28;20037;-73
2023/06/16 04:46:29;;;;;;;3.92;2.00;;;16.80;95.50;;;;;;5009304;28;20072;-71
2023/06/16 04:48:54;;;;;;;5.60;2.20;;;16.80;95.60;;;;;;5009723;28;20084;-74
2023/06/16 04:51:20;;;;;;;3.20;2.08;;;16.80;96.10;;;;;;5025927;28;20034;-72
2023/06/16 04:53:46;;;;;;;5.13;1.90;;;16.80;95.90;;;;;;5009730;28;20042;-72
2023/06/16 04:56:12;;;;;;;4.63;2.13;;;16.80;96.20;;;;;;5009553;28;20030;-72
2023/06/16 04:58:38;;;;;;;7.57;1.98;;;17.00;95.60;;;;;;5009885;28;20087;-72
2023/06/16 05:01:03;;;;;;;5.65;2.13;;;17.00;95.50;;;;;;5008657;28;20140;-73
2023/06/16 05:03:29;;;;;;;3.58;1.70;;;17.00;95.70;;;;;;5027769;28;20102;-73
2023/06/16 05:05:54;;;;;;;6.40;2.08;;;17.00;96.00;;;;;;5009319;28;20040;-71
2023/06/16 05:08:20;;;;;;;7.22;2.92;;;17.00;96.10;;;;;;5008620;28;20063;-73
2023/06/16 05:10:46;;;;;;;4.22;1.88;;;17.00;96.00;;;;;;5027056;28;20050;-72
2023/06/16 05:13:11;;;;;;;3.47;1.65;;;17.10;95.60;;;;;;5026198;28;20045;-72
2023/06/16 05:15:37;;;;;;;7.80;2.25;;;17.20;95.20;;;;;;5027562;28;20072;-72
2023/06/16 05:18:02;;;;;;;5.82;2.13;;;17.30;94.70;;;;;;5025972;28;20038;-73
2023/06/16 05:20:31;;;;;;;6.82;2.47;;;17.40;94.10;;;;;;5009207;28;20370;-72
2023/06/16 05:22:57;;;;;;;2.80;1.63;;;17.40;94.20;;;;;;5027180;28;20098;-73
2023/06/16 05:25:23;;;;;;;8.98;1.98;;;17.50;94.20;;;;;;5008702;28;20037;-72
2023/06/16 05:27:48;;;;;;;3.38;1.60;;;17.50;94.20;;;;;;5027010;28;20784;-72
2023/06/16 05:30:14;;;;;;;4.85;1.75;;;17.60;94.60;;;;;;5025841;28;20045;-71
2023/06/16 05:32:40;;;;;;;4.18;1.95;;;17.60;94.80;;;;;;5027081;28;20125;-73
2023/06/16 05:35:07;;;;;;;5.93;1.77;;;17.70;94.90;;;;;;5007028;28;20041;-73
2023/06/16 05:37:32;;;;;;;5.63;1.73;;;17.80;93.90;;;;;;5009500;28;20129;-72
2023/06/16 05:39:58;;;;;;;10.55;2.63;;;17.90;93.80;;;;;;5009380;28;20120;-71
2023/06/16 05:42:23;;;;;;;2.45;1.42;;;18.00;94.00;;;;;;5008929;28;20037;-73
2023/06/16 05:44:49;;;;;;;7.43;1.85;;;18.20;93.80;;;;;;5009207;28;20033;-73
2023/06/16 05:47:15;;;;;;;4.10;1.95;;;18.30;93.70;;;;;;5008357;28;20041;-71
2023/06/16 05:49:40;;;;;;;7.70;2.00;;;18.60;93.80;;;;;;5027204;28;20037;-72
2023/06/16 05:52:06;;;;;;;4.10;1.77;;;18.90;93.40;;;;;;5010808;28;20061;-71
2023/06/16 05:54:32;;;;;;;7.15;1.98;;;19.40;91.60;;;;;;5019825;28;20033;-71
2023/06/16 05:56:59;;;;;;;6.18;2.45;;;19.90;90.90;;;;;;5013086;28;20095;-71
2023/06/16 05:59:26;;;;;;;4.18;1.60;;;20.50;90.10;;;;;;5029100;28;20150;-71
2023/06/16 06:01:51;;;;;;;4.10;1.70;;;20.90;86.20;;;;;;5029820;28;20029;-71
2023/06/16 06:04:25;;;;;;;4.00;1.60;;;21.30;86.00;;;;;;5015019;28;20534;-72
2023/06/16 06:06:51;;;;;;;4.75;1.77;;;21.50;85.40;;;;;;5008388;28;20030;-74
2023/06/16 06:09:17;;;;;;;3.83;1.70;;;21.70;84.60;;;;;;5024818;28;20575;-73
2023/06/16 06:11:42;;;;;;;3.20;1.75;;;21.80;83.40;;;;;;5027508;28;20116;-73
2023/06/16 06:14:08;;;;;;;4.07;1.58;;;21.80;82.70;;;;;;5027353;28;20474;-73
2023/06/16 06:16:34;;;;;;;2.60;1.23;;;21.80;82.70;;;;;;5028085;28;20045;-73
2023/06/16 06:18:59;;;;;;;5.70;1.58;;;21.90;82.70;;;;;;5025893;28;20025;-74
2023/06/16 06:21:25;;;;;;;3.78;1.65;;;21.90;83.00;;;;;;5009354;28;20038;-72
2023/06/16 06:23:51;;;;;;;5.72;1.75;;;21.90;82.70;;;;;;5010229;28;20076;-72
2023/06/16 06:26:17;;;;;;;4.40;1.73;;;21.90;82.40;;;;;;5024273;28;20115;-72
2023/06/16 06:28:43;;;;;;;4.32;1.65;;;21.90;82.00;;;;;;5028044;28;20079;-73
2023/06/16 06:31:08;;;;;;;5.05;2.10;;;21.90;82.10;;;;;;5009120;28;20438;-74
2023/06/16 06:33:34;;;;;;;4.20;1.80;;;22.00;80.50;;;;;;5027520;28;20037;-73
2023/06/16 06:36:00;;;;;;;4.13;1.75;;;22.20;80.90;;;;;;5009079;28;20037;-72
2023/06/16 06:38:25;;;;;;;4.05;1.98;;;22.30;81.30;;;;;;5027837;28;20544;-73
2023/06/16 06:40:51;;;;;;;3.47;1.70;;;22.40;80.70;;;;;;5009163;28;20030;-73
2023/06/16 06:43:17;;;;;;;4.15;1.70;;;22.60;80.40;;;;;;5026635;28;20045;-72
2023/06/16 06:45:44;;;;;;;4.78;1.92;;;22.70;80.20;;;;;;5027596;28;20037;-73
2023/06/16 06:48:10;;;;;;;4.03;1.50;;;22.80;80.00;;;;;;5027648;28;20030;-72
2023/06/16 06:50:35;;;;;;;4.32;1.70;;;23.00;79.40;;;;;;5009511;28;20140;-72
2023/06/16 06:53:01;;;;;;;5.60;1.27;;;23.00;78.50;;;;;;5025399;28;20033;-73
2023/06/16 06:55:26;;;;;;;3.38;1.20;;;23.20;79.60;;;;;;5010665;28;20057;-73
2023/06/16 06:57:52;;;;;;;6.53;1.67;;;23.40;78.80;;;;;;5010708;28;20048;-73
2023/06/16 07:00:18;;;;;;;4.38;1.70;;;23.60;77.60;;;;;;5026829;28;20033;-73
2023/06/16 07:02:43;;;;;;;3.38;1.55;;;23.90;76.60;;;;;;5009768;28;20145;-74
2023/06/16 07:05:09;;;;;;;3.58;1.27;;;24.30;76.70;;;;;;5027674;28;20095;-73
2023/06/16 07:07:35;;;;;;;13.48;2.28;;;24.90;74.50;;;;;;5028364;28;20029;-74
2023/06/16 07:10:01;;;;;;;9.30;2.22;;;25.60;73.60;;;;;;5025615;28;20502;-73
2023/06/16 07:12:27;;;;;;;10.98;2.03;;;26.70;71.60;;;;;;5009643;28;20045;-74
2023/06/16 07:14:52;;;;;;;4.47;2.13;;;27.70;68.80;;;;;;5009941;28;20409;-74
2023/06/16 07:17:18;;;;;;;4.80;1.80;;;28.60;66.20;;;;;;5026790;28;20508;-74
2023/06/16 07:19:44;;;;;;;9.00;2.55;;;29.60;63.60;;;;;;5007906;28;20124;-74
2023/06/16 07:22:10;;;;;;;6.28;2.17;;;30.30;63.90;;;;;;5026622;28;20033;-74
2023/06/16 07:24:36;;;;;;;2.65;1.83;;;31.20;61.30;;;;;;5027319;28;20037;-74
2023/06/16 07:27:02;;;;;;;7.50;2.17;;;31.40;61.50;;;;;;5027072;28;20504;-74
2023/06/16 07:29:28;;;;;;;10.63;2.08;;;31.90;60.50;;;;;;5010572;28;20474;-73
2023/06/16 07:31:54;;;;;;;5.50;2.10;;;32.30;59.30;;;;;;5028726;28;20036;-74
2023/06/16 07:34:20;;;;;;;4.43;2.72;;;32.70;60.00;;;;;;5008914;28;20037;-73
2023/06/16 07:36:45;;;;;;;5.85;2.50;;;33.40;57.90;;;;;;5027518;28;20769;-75
2023/06/16 07:39:11;;;;;;;4.45;2.75;;;33.80;56.60;;;;;;5025640;28;20029;-74
2023/06/16 07:41:37;;;;;;;8.25;3.08;;;34.20;56.80;;;;;;5030154;28;20041;-74
2023/06/16 07:44:04;;;;;;;7.88;2.90;;;34.80;56.90;;;;;;5027170;28;20121;-74
2023/06/16 07:46:29;;;;;;;3.95;2.28;;;34.50;54.90;;;;;;5027201;28;20030;-74
2023/06/16 07:48:55;;;;;;;7.22;2.35;;;34.30;54.00;;;;;;5026486;28;20029;-75
2023/06/16 07:51:21;;;;;;;9.50;2.78;;;35.10;53.50;;;;;;5025720;28;20038;-72
2023/06/16 07:53:48;;;;;;;6.38;2.20;;;35.50;53.10;;;;;;5026605;28;20512;-73
2023/06/16 07:56:15;;;;;;;7.90;2.38;;;35.80;53.50;;;;;;5028021;28;20089;-74
2023/06/16 07:58:40;;;;;;;3.80;2.60;;;36.00;53.90;;;;;;5026999;28;20032;-75
2023/06/16 08:01:07;;;;;;;8.32;2.53;;;36.20;52.60;;;;;;5007326;28;20045;-74
2023/06/16 08:03:32;;;;;;;4.07;2.38;;;36.20;52.00;;;;;;5028146;28;21696;-75
2023/06/16 08:05:58;;;;;;;3.38;1.95;;;35.90;51.00;;;;;;5026285;28;20087;-74
2023/06/16 08:08:27;;;;;;;3.70;2.60;;;35.80;49.00;;;;;;5008308;28;20037;-74
2023/06/16 08:10:55;;;;;;;4.20;2.70;;;35.30;49.10;;;;;;5026026;28;20029;-74
2023/06/16 08:13:21;;;;;;;7.32;2.65;;;35.10;50.20;;;;;;5024954;28;20038;-73
2023/06/16 08:15:47;;;;;;;6.95;2.38;;;34.70;50.20;;;;;;5026682;28;20040;-74
2023/06/16 08:18:12;;;;;;;5.13;2.10;;;34.60;51.00;;;;;;5024953;28;20041;-74
2023/06/16 08:20:38;;;;;;;3.75;2.00;;;34.20;51.60;;;;;;5025944;28;20095;-74
2023/06/16 08:23:04;;;;;;;5.82;1.92;;;33.60;52.00;;;;;;5007180;28;20072;-74
2023/06/16 08:25:29;;;;;;;2.65;1.70;;;32.90;51.60;;;;;;5025969;28;20122;-74
2023/06/16 08:27:55;;;;;;;6.75;1.67;;;32.30;52.10;;;;;;5026267;28;20175;-74
2023/06/16 08:30:20;;;;;;;3.58;1.77;;;31.60;52.10;;;;;;5024725;28;20150;-73
2023/06/16 08:32:46;;;;;;;4.63;1.98;;;30.60;53.10;;;;;;5007889;28;20041;-74
2023/06/16 08:35:12;;;;;;;3.72;1.60;;;30.20;52.90;;;;;;5026509;28;20128;-73
2023/06/16 08:37:38;;;;;;;2.25;1.10;;;30.00;54.00;;;;;;5008758;28;20124;-74
2023/06/16 08:40:08;;;;;;;2.38;1.33;;;30.00;54.60;;;;;;5007114;28;20409;-73
2023/06/16 08:42:37;;;;;;;6.60;2.03;;;29.70;54.70;;;;;;5007946;28;20516;-74
2023/06/16 08:45:04;;;;;;;2.35;1.40;;;29.60;54.60;;;;;;5024698;28;20090;-74
2023/06/16 08:47:29;;;;;;;3.35;1.20;;;29.40;54.90;;;;;;5008092;28;20037;-73
2023/06/16 08:49:56;;;;;;;2.90;0.90;;;29.10;54.30;;;;;;5025137;28;20183;-73
2023/06/16 08:52:23;;;;;;;6.47;2.28;;;29.00;54.80;;;;;;5024528;28;20037;-73
2023/06/16 08:54:57;;;;;;;2.55;0.88;;;28.80;54.20;;;;;;5003995;28;20033;-71
2023/06/16 08:57:24;;;;;;;3.70;1.10;;;28.80;53.70;;;;;;5005869;28;20046;-72
2023/06/16 08:59:55;;;;;;;3.53;1.88;;;28.70;55.80;;;;;;5007348;28;20426;-70
2023/06/16 09:02:21;;;;;;;2.50;1.38;;;28.70;55.70;;;;;;5022155;28;20047;-73
2023/06/16 09:04:47;;;;;;;5.07;1.33;;;28.60;55.30;;;;;;5027778;28;20482;-72
2023/06/16 09:07:19;;;;;;;1.77;1.20;;;28.50;55.10;;;;;;5006864;28;20060;-74
2023/06/16 09:09:48;;;;;;;2.05;1.00;;;28.50;56.10;;;;;;5021877;28;20034;-72
2023/06/16 09:12:14;;;;;;;6.72;1.13;;;28.30;55.10;;;;;;5024198;28;20029;-72
2023/06/16 09:14:41;;;;;;;1.77;0.80;;;28.20;54.10;;;;;;5025242;28;20144;-73
2023/06/16 09:17:09;;;;;;;1.70;1.02;;;28.10;53.80;;;;;;5003606;28;20056;-72
2023/06/16 09:19:47;;;;;;;1.63;0.60;;;28.00;55.50;;;;;;5025088;28;20032;-72
2023/06/16 09:22:18;;;;;;;2.17;1.05;;;28.10;55.10;;;;;;5022196;28;20037;-71
2023/06/16 09:24:57;;;;;;;1.73;1.08;;;28.20;55.00;;;;;;5007120;28;20615;-72
2023/06/16 09:27:26;;;;;;;5.60;1.38;;;28.10;53.50;;;;;;5024343;28;20042;-72
2023/06/16 09:29:58;;;;;;;2.38;1.20;;;28.00;53.00;;;;;;5025401;28;20144;-72
2023/06/16 09:32:24;;;;;;;3.10;1.23;;;27.90;53.80;;;;;;5007513;28;20055;-72
2023/06/16 09:34:50;;;;;;;3.40;1.08;;;27.90;53.60;;;;;;5029435;28;20060;-72
2023/06/16 09:37:20;;;;;;;2.58;0.80;;;27.90;54.50;;;;;;5028639;28;20486;-74
2023/06/16 09:39:46;;;;;;;2.83;1.25;;;28.10;55.20;;;;;;5028395;28;20175;-72
2023/06/16 09:42:12;;;;;;;1.63;0.80;;;28.00;54.80;;;;;;5028248;28;20459;-74
2023/06/16 09:44:39;;;;;;;2.38;1.17;;;28.00;54.50;;;;;;5028897;28;20025;-71
2023/06/16 09:47:05;;;;;;;2.80;1.20;;;28.10;55.50;;;;;;5008864;28;20028;-73
2023/06/16 09:49:31;;;;;;;5.32;1.13;;;28.00;55.70;;;;;;5025121;28;20402;-73
2023/06/16 09:51:58;;;;;;;5.28;1.23;;;28.10;55.80;;;;;;5025261;28;20045;-72
2023/06/16 09:54:26;;;;;;;4.75;1.02;;;28.20;55.60;;;;;;5005860;28;20032;-73
2023/06/16 09:56:56;;;;;;;7.88;1.23;;;28.30;55.30;;;;;;5009648;28;20095;-71
2023/06/16 09:59:23;;;;;;;2.00;0.90;;;28.40;53.60;;;;;;5008092;28;20037;-74
2023/06/16 10:01:52;;;;;;;2.03;0.90;;;28.50;53.50;;;;;;5027297;28;20405;-72
2023/06/16 10:04:20;;;;;;;1.23;0.80;;;28.40;54.30;;;;;;5027595;28;20389;-72
2023/06/16 10:06:53;;;;;;;7.68;1.27;;;28.40;54.30;;;;;;5028147;28;20041;-72
2023/06/16 10:09:27;;;;;;;2.88;1.00;;;28.50;54.70;;;;;;5008921;28;20517;-71
2023/06/16 10:11:57;;;;;;;1.17;0.68;;;28.60;55.20;;;;;;5009526;28;20045;-72
2023/06/16 10:14:25;;;;;;;;;;;28.60;54.60;;;;;;5008960;28;20033;-72
2023/06/16 10:16:53;;;;;;;4.70;1.17;;;28.50;54.20;;;;;;5009958;28;20428;-71
2023/06/16 10:19:21;;;;;;;2.17;1.10;;;28.50;54.40;;;;;;5008043;28;20056;-73
2023/06/16 10:21:50;;;;;;;2.63;1.27;;;28.60;55.40;;;;;;5009945;28;20075;-72
2023/06/16 10:24:16;;;;;;;4.30;1.10;;;28.70;56.20;;;;;;5009181;28;20508;-73
2023/06/16 10:26:42;;;;;;;3.78;1.40;;;28.80;55.80;;;;;;5009201;28;20025;-72
2023/06/16 10:29:08;;;;;;;4.40;1.20;;;28.80;55.60;;;;;;5008665;28;20044;-73
2023/06/16 10:31:36;;;;;;;3.13;0.98;;;28.80;54.90;;;;;;5009691;28;20033;-72
2023/06/16 10:34:04;;;;;;;2.00;0.90;;;28.80;55.30;;;;;;5009276;28;20487;-72
2023/06/16 10:36:33;;;;;;;1.88;1.10;;;28.80;56.00;;;;;;5028215;28;20034;-73
2023/06/16 10:39:01;;;;;;;2.33;1.40;;;28.90;56.20;;;;;;5027234;28;20548;-73
2023/06/16 10:41:31;;;;;;;1.60;0.90;;;28.90;54.60;;;;;;5008832;28;20265;-74
2023/06/16 10:44:29;;;;;;;2.22;1.10;;;28.70;53.90;;;;;;5026482;28;20057;-74
2023/06/16 10:47:10;;;;;;;2.30;1.20;;;28.70;54.80;;;;;;5008787;28;20045;-73
2023/06/16 10:49:51;;;;;;;1.67;1.00;;;28.70;53.30;;;;;;5005402;28;20761;-74
2023/06/16 10:52:18;;;;;;;2.58;1.33;;;28.60;54.30;;;;;;5006004;28;20033;-72
2023/06/16 10:54:45;;;;;;;3.47;1.23;;;28.60;54.60;;;;;;5008704;28;20045;-72
2023/06/16 10:57:14;;;;;;;2.95;0.82;;;28.40;55.10;;;;;;5027161;28;20041;-71
2023/06/16 11:00:11;;;;;;;1.63;1.00;;;28.30;55.90;;;;;;5008905;28;20490;-72
2023/06/16 11:02:37;;;;;;;3.17;1.17;;;28.30;57.70;;;;;;5007715;28;20073;-72
2023/06/16 11:05:07;;;;;;;5.13;1.40;;;28.30;56.50;;;;;;5026752;28;20375;-72
2023/06/16 11:07:41;;;;;;;1.92;0.88;;;28.30;56.50;;;;;;5023872;28;20087;-72
2023/06/16 11:10:10;;;;;;;3.58;1.23;;;28.50;53.40;;;;;;5025314;28;20091;-72
2023/06/16 11:12:38;;;;;;;2.42;1.20;;;28.70;55.60;;;;;;5026090;28;20331;-74
2023/06/16 11:15:04;;;;;;;1.45;1.00;;;28.70;56.70;;;;;;5026570;28;20034;-73
2023/06/16 11:17:31;;;;;;;6.75;1.33;;;28.80;55.70;;;;;;5009373;28;20041;-73
2023/06/16 11:19:58;;;;;;;3.35;1.20;;;28.80;55.40;;;;;;5025212;28;20029;-73
2023/06/16 11:22:30;;;;;;;4.28;1.40;;;28.80;54.90;;;;;;5006738;28;20053;-73
2023/06/16 11:24:56;;;;;;;3.88;1.10;;;28.80;54.50;;;;;;5025928;28;20030;-72
2023/06/16 11:27:22;;;;;;;2.88;1.00;;;28.60;54.50;;;;;;5024437;28;20528;-71
2023/06/16 11:29:48;;;;;;;3.80;1.25;;;28.70;53.30;;;;;;5025820;28;20033;-74
2023/06/16 11:32:16;;;;;;;1.50;1.13;;;28.60;53.30;;;;;;5024938;28;20056;-72
2023/06/16 11:34:42;;;;;;;3.80;1.13;;;28.60;54.30;;;;;;5026553;28;20037;-73
2023/06/16 11:37:08;;;;;;;1.70;1.13;;;28.60;54.40;;;;;;5006708;28;20029;-72
2023/06/16 11:39:43;;;;;;;4.63;1.15;;;28.60;56.10;;;;;;5026048;28;20056;-72
2023/06/16 11:42:16;;;;;;;3.50;1.20;;;28.70;56.00;;;;;;5024279;28;20048;-73
2023/06/16 11:44:42;;;;;;;2.35;1.08;;;28.80;55.40;;;;;;5023724;28;20120;-73
2023/06/16 11:47:09;;;;;;;4.57;1.20;;;28.80;53.60;;;;;;5025581;28;20030;-74
2023/06/16 11:49:36;;;;;;;9.48;1.40;;;28.90;53.90;;;;;;5028285;28;20442;-72
2023/06/16 11:52:06;;;;;;;4.90;1.15;;;28.90;54.70;;;;;;5023300;28;20407;-74
2023/06/16 11:54:35;;;;;;;2.28;1.17;;;28.80;53.10;;;;;;5006432;28;20026;-74
2023/06/16 11:57:01;;;;;;;;;;;28.70;54.00;;;;;;5024350;28;20033;-73
2023/06/16 11:59:32;;;;;;;2.05;1.00;;;28.60;52.90;;;;;;5009315;28;19917;-73
2023/06/16 12:02:00;;;;;;;3.22;0.90;;;28.50;54.00;;;;;;5023764;28;20375;-74
2023/06/16 12:04:27;;;;;;;3.40;1.00;;;28.50;54.60;;;;;;5022478;28;20076;-73
2023/06/16 12:06:56;;;;;;;4.80;1.50;;;28.40;54.60;;;;;;5026266;28;20034;-74
2023/06/16 12:09:22;;;;;;;4.07;1.10;;;28.40;55.50;;;;;;5025970;28;20034;-71
2023/06/16 12:11:48;;;;;;;3.78;0.80;;;28.50;55.50;;;;;;5009255;28;20037;-72
2023/06/16 12:14:20;;;;;;;3.58;0.80;;;28.50;54.80;;;;;;5024368;28;20026;-72
2023/06/16 12:16:48;;;;;;;3.38;1.17;;;28.40;54.60;;;;;;5025169;28;20036;-72
2023/06/16 12:19:20;;;;;;;1.67;0.90;;;28.40;54.80;;;;;;5006693;28;20836;-72
2023/06/16 12:22:06;;;;;;;4.20;1.10;;;28.40;54.50;;;;;;5022709;28;20609;-72
2023/06/16 12:24:31;;;;;;;3.17;1.23;;;28.50;54.70;;;;;;5024338;28;20061;-73
2023/06/16 12:26:57;;;;;;;2.65;1.45;;;28.50;55.10;;;;;;5008022;28;20075;-73
2023/06/16 12:29:27;;;;;;;2.72;1.23;;;28.40;54.60;;;;;;5024228;28;20080;-72
2023/06/16 12:31:56;;;;;;;2.50;0.90;;;28.40;54.50;;;;;;5006989;28;20033;-72
2023/06/16 12:34:28;;;;;;;1.90;0.93;;;28.40;54.00;;;;;;5024807;28;20102;-72
2023/06/16 12:36:58;;;;;;;2.35;0.88;;;28.40;54.20;;;;;;5025178;28;20720;-74
2023/06/16 12:39:24;;;;;;;;;;;28.40;53.80;;;;;;5006961;28;20033;-74
2023/06/16 12:41:56;;;;;;;2.63;1.15;;;28.40;54.30;;;;;;5024632;28;19920;-74
2023/06/16 12:44:22;;;;;;;2.58;1.20;;;28.40;54.30;;;;;;5007137;28;20072;-72
2023/06/16 12:46:48;;;;;;;1.92;1.10;;;28.40;54.10;;;;;;5007312;28;20069;-73
2023/06/16 12:49:13;;;;;;;5.47;1.45;;;28.30;54.20;;;;;;5024313;28;20057;-73